createdAt,value
2017-08-28T00:00:04.559Z,18.89
2017-08-28T00:02:32.010Z,18.95
2017-08-28T00:04:59.472Z,18.84
2017-08-28T00:07:27.015Z,18.93
2017-08-28T00:09:54.462Z,18.79
2017-08-28T00:12:21.930Z,18.88
2017-08-28T00:14:49.378Z,18.82
2017-08-28T00:17:16.845Z,18.77
2017-08-28T00:19:44.285Z,18.65
2017-08-28T00:22:11.755Z,18.57
2017-08-28T00:24:39.202Z,18.76
2017-08-28T00:27:06.685Z,18.79
2017-08-28T00:29:34.139Z,18.69
2017-08-28T00:32:01.646Z,18.57
2017-08-28T00:34:29.102Z,18.76
2017-08-28T00:36:56.588Z,18.72
2017-08-28T00:39:24.047Z,18.76
2017-08-28T00:41:51.497Z,18.94
2017-08-28T00:44:18.986Z,18.67
2017-08-28T00:46:46.433Z,18.47
2017-08-28T00:49:13.908Z,18.59
2017-08-28T00:51:41.363Z,18.52
2017-08-28T00:54:08.835Z,18.45
2017-08-28T00:56:36.297Z,18.19
2017-08-28T00:59:03.775Z,18.21
2017-08-28T01:01:31.222Z,18.10
2017-08-28T01:03:58.706Z,18.11
2017-08-28T01:06:26.167Z,18.25
2017-08-28T01:08:53.691Z,18.04
2017-08-28T01:11:21.170Z,17.85
2017-08-28T01:13:48.632Z,17.91
2017-08-28T01:16:16.138Z,17.80
2017-08-28T01:18:43.596Z,17.64
2017-08-28T01:21:11.070Z,17.80
2017-08-28T01:23:38.523Z,17.79
2017-08-28T01:26:06.063Z,17.83
2017-08-28T01:28:33.520Z,17.90
2017-08-28T01:31:00.985Z,17.96
2017-08-28T01:33:28.534Z,17.84
2017-08-28T01:35:56.010Z,17.80
2017-08-28T01:38:23.462Z,17.70
2017-08-28T01:40:50.927Z,17.65
2017-08-28T01:43:18.423Z,17.71
2017-08-28T01:45:45.884Z,17.30
2017-08-28T01:48:13.353Z,17.43
2017-08-28T01:50:40.815Z,17.49
2017-08-28T01:53:08.289Z,17.54
2017-08-28T01:55:35.775Z,17.53
2017-08-28T01:58:03.249Z,17.63
2017-08-28T02:00:30.709Z,17.72
2017-08-28T02:02:58.205Z,17.68
2017-08-28T02:05:25.654Z,17.74
2017-08-28T02:07:53.131Z,17.64
2017-08-28T02:10:20.587Z,17.42
2017-08-28T02:12:48.058Z,17.38
2017-08-28T02:15:15.510Z,17.35
2017-08-28T02:17:42.987Z,17.37
2017-08-28T02:20:10.446Z,17.22
2017-08-28T02:22:37.915Z,17.34
2017-08-28T02:25:05.366Z,17.34
2017-08-28T02:27:32.842Z,17.50
2017-08-28T02:30:00.300Z,17.28
2017-08-28T02:32:27.778Z,17.50
2017-08-28T02:34:55.230Z,17.29
2017-08-28T02:37:22.709Z,17.27
2017-08-28T02:39:50.165Z,17.59
2017-08-28T02:42:17.644Z,17.51
2017-08-28T02:44:45.094Z,17.40
2017-08-28T02:47:12.554Z,17.32
2017-08-28T02:49:40.048Z,17.28
2017-08-28T02:52:07.507Z,17.24
2017-08-28T02:54:34.992Z,17.32
2017-08-28T02:57:02.452Z,17.18
2017-08-28T02:59:29.934Z,17.05
2017-08-28T03:01:57.390Z,17.23
2017-08-28T03:04:24.867Z,17.21
2017-08-28T03:06:52.323Z,17.24
2017-08-28T03:09:19.797Z,17.42
2017-08-28T03:11:47.256Z,17.28
2017-08-28T03:14:14.738Z,17.26
2017-08-28T03:16:42.194Z,17.15
2017-08-28T03:19:09.774Z,17.24
2017-08-28T03:21:37.232Z,17.21
2017-08-28T03:24:04.708Z,17.35
2017-08-28T03:26:32.162Z,17.38
2017-08-28T03:28:59.629Z,17.29
2017-08-28T03:31:27.081Z,17.24
2017-08-28T03:33:54.554Z,17.14
2017-08-28T03:36:22.002Z,17.15
2017-08-28T03:38:49.469Z,17.11
2017-08-28T03:41:16.924Z,17.22
2017-08-28T03:43:44.398Z,17.00
2017-08-28T03:46:11.850Z,17.03
2017-08-28T03:48:39.323Z,17.01
2017-08-28T03:51:06.791Z,17.08
2017-08-28T03:53:34.299Z,16.84
2017-08-28T03:56:01.745Z,16.84
2017-08-28T03:58:29.207Z,16.80
2017-08-28T04:00:56.707Z,16.81
2017-08-28T04:03:24.163Z,16.89
2017-08-28T04:05:51.639Z,16.94
2017-08-28T04:08:19.094Z,16.95
2017-08-28T04:10:46.570Z,16.94
2017-08-28T04:13:14.054Z,16.83
2017-08-28T04:15:41.532Z,16.67
2017-08-28T04:18:09.000Z,16.71
2017-08-28T04:20:36.476Z,16.86
2017-08-28T04:23:03.932Z,16.85
2017-08-28T04:25:31.405Z,16.72
2017-08-28T04:27:58.866Z,16.70
2017-08-28T04:30:26.337Z,16.58
2017-08-28T04:32:53.782Z,16.67
2017-08-28T04:35:21.262Z,16.67
2017-08-28T04:37:48.726Z,16.70
2017-08-28T04:40:16.206Z,16.69
2017-08-28T04:42:43.698Z,16.75
2017-08-28T04:45:11.165Z,16.87
2017-08-28T04:47:38.615Z,16.80
2017-08-28T04:50:06.117Z,16.72
2017-08-28T04:52:33.575Z,16.73
2017-08-28T04:55:01.053Z,16.64
2017-08-28T04:57:28.499Z,16.82
2017-08-28T04:59:55.969Z,16.61
2017-08-28T05:02:23.437Z,16.59
2017-08-28T05:04:50.935Z,16.79
2017-08-28T05:07:18.422Z,16.70
2017-08-28T05:09:45.876Z,16.85
2017-08-28T05:12:13.341Z,16.85
2017-08-28T05:14:40.796Z,16.87
2017-08-28T05:17:08.271Z,16.85
2017-08-28T05:19:35.718Z,16.72
2017-08-28T05:22:03.197Z,16.81
2017-08-28T05:24:30.695Z,16.89
2017-08-28T05:26:58.193Z,16.84
2017-08-28T05:29:25.691Z,16.81
2017-08-28T05:31:53.171Z,16.76
2017-08-28T05:34:20.617Z,16.83
2017-08-28T05:36:48.094Z,16.85
2017-08-28T05:39:15.555Z,16.97
2017-08-28T05:41:43.072Z,17.02
2017-08-28T05:44:10.586Z,16.97
2017-08-28T05:46:38.087Z,17.01
2017-08-28T05:49:05.542Z,17.08
2017-08-28T05:51:33.014Z,17.12
2017-08-28T05:54:00.476Z,17.14
2017-08-28T05:56:27.948Z,17.13
2017-08-28T05:58:55.425Z,17.11
2017-08-28T06:01:22.898Z,17.12
2017-08-28T06:03:50.351Z,17.23
2017-08-28T06:06:17.826Z,17.21
2017-08-28T06:08:45.274Z,17.29
2017-08-28T06:11:12.742Z,17.36
2017-08-28T06:13:40.203Z,17.46
2017-08-28T06:16:07.669Z,17.55
2017-08-28T06:18:35.209Z,17.76
2017-08-28T06:21:02.689Z,17.84
2017-08-28T06:23:30.143Z,17.96
2017-08-28T06:25:57.593Z,18.32
2017-08-28T06:28:25.084Z,18.30
2017-08-28T06:30:52.543Z,18.64
2017-08-28T06:33:20.017Z,18.66
2017-08-28T06:35:47.480Z,18.66
2017-08-28T06:38:14.954Z,18.70
2017-08-28T06:40:42.398Z,18.79
2017-08-28T06:43:09.866Z,19.24
2017-08-28T06:45:37.331Z,19.29
2017-08-28T06:48:04.803Z,19.08
2017-08-28T06:50:32.258Z,19.10
2017-08-28T06:52:59.730Z,18.97
2017-08-28T06:55:27.178Z,19.14
2017-08-28T06:57:54.650Z,19.13
2017-08-28T07:00:22.102Z,19.27
2017-08-28T07:02:49.585Z,19.23
2017-08-28T07:05:17.060Z,19.88
2017-08-28T07:07:44.539Z,20.00
2017-08-28T07:10:11.990Z,20.26
2017-08-28T07:12:39.466Z,20.23
2017-08-28T07:15:06.930Z,19.81
2017-08-28T07:17:34.430Z,19.85
2017-08-28T07:20:01.890Z,19.89
2017-08-28T07:22:29.361Z,19.85
2017-08-28T07:24:56.826Z,20.12
2017-08-28T07:27:24.285Z,20.14
2017-08-28T07:29:51.772Z,20.35
2017-08-28T07:32:19.239Z,20.63
2017-08-28T07:34:46.721Z,21.04
2017-08-28T07:37:14.182Z,20.88
2017-08-28T07:39:41.659Z,20.83
2017-08-28T07:42:09.128Z,20.83
2017-08-28T07:44:36.603Z,20.82
2017-08-28T07:47:04.055Z,21.41
2017-08-28T07:49:31.517Z,21.11
2017-08-28T07:51:58.967Z,21.22
2017-08-28T07:54:26.438Z,21.62
2017-08-28T07:56:53.952Z,21.59
2017-08-28T07:59:21.422Z,21.84
2017-08-28T08:01:48.891Z,21.84
2017-08-28T08:04:16.372Z,21.63
2017-08-28T08:06:43.833Z,21.82
2017-08-28T08:09:11.310Z,21.89
2017-08-28T08:11:38.774Z,22.16
2017-08-28T08:14:06.262Z,21.98
2017-08-28T08:16:33.723Z,22.57
2017-08-28T08:19:01.178Z,22.52
2017-08-28T08:21:28.646Z,22.46
2017-08-28T08:23:56.102Z,22.39
2017-08-28T08:26:23.579Z,22.28
2017-08-28T08:28:51.026Z,22.10
2017-08-28T08:31:18.498Z,22.42
2017-08-28T08:33:51.347Z,22.85
2017-08-28T08:36:18.819Z,22.57
2017-08-28T08:38:46.275Z,22.36
2017-08-28T08:41:13.757Z,22.76
2017-08-28T08:43:41.206Z,23.02
2017-08-28T08:46:08.674Z,22.78
2017-08-28T08:48:36.122Z,23.20
2017-08-28T08:51:03.604Z,23.66
2017-08-28T08:53:31.055Z,23.49
2017-08-28T08:55:58.572Z,23.70
2017-08-28T08:58:26.039Z,23.41
2017-08-28T09:00:53.496Z,23.55
2017-08-28T09:03:26.467Z,23.41
2017-08-28T09:05:53.906Z,23.67
2017-08-28T09:08:21.366Z,23.66
2017-08-28T09:10:48.813Z,23.99
2017-08-28T09:13:16.296Z,24.12
2017-08-28T09:15:43.748Z,24.16
2017-08-28T09:18:11.186Z,23.48
2017-08-28T09:20:38.659Z,23.98
2017-08-28T09:23:06.101Z,23.90
2017-08-28T09:25:33.563Z,24.54
2017-08-28T09:28:01.006Z,24.64
2017-08-28T09:30:28.479Z,25.18
2017-08-28T09:32:55.918Z,24.92
2017-08-28T09:35:23.378Z,25.20
2017-08-28T09:37:50.840Z,25.09
2017-08-28T09:40:18.302Z,24.55
2017-08-28T09:42:45.773Z,24.50
2017-08-28T09:45:13.234Z,24.87
2017-08-28T09:47:40.682Z,25.13
2017-08-28T09:50:08.155Z,25.63
2017-08-28T09:52:35.594Z,25.31
2017-08-28T09:55:03.041Z,25.24
2017-08-28T09:57:30.512Z,25.34
2017-08-28T09:59:57.957Z,25.32
2017-08-28T10:02:25.457Z,25.32
2017-08-28T10:04:52.898Z,25.21
2017-08-28T10:07:20.369Z,25.46
2017-08-28T10:09:47.815Z,25.71
2017-08-28T10:12:15.342Z,25.68
2017-08-28T10:14:42.778Z,25.83
2017-08-28T10:17:10.242Z,25.81
2017-08-28T10:19:37.690Z,25.43
2017-08-28T10:22:05.156Z,25.69
2017-08-28T10:24:32.608Z,25.88
2017-08-28T10:27:05.788Z,25.64
2017-08-28T10:29:33.239Z,26.13
2017-08-28T10:32:00.705Z,25.52
2017-08-28T10:34:28.145Z,25.88
2017-08-28T10:36:55.618Z,26.19
2017-08-28T10:39:23.077Z,26.25
2017-08-28T10:41:50.557Z,26.37
2017-08-28T10:44:18.002Z,26.45
2017-08-28T10:46:45.472Z,25.89
2017-08-28T10:49:12.918Z,26.02
2017-08-28T10:51:40.379Z,26.55
2017-08-28T10:54:07.847Z,26.44
2017-08-28T10:56:35.310Z,25.90
2017-08-28T10:59:02.766Z,25.70
2017-08-28T11:01:30.248Z,25.80
2017-08-28T11:03:57.702Z,26.17
2017-08-28T11:06:25.145Z,26.18
2017-08-28T11:08:52.619Z,26.19
2017-08-28T11:11:20.066Z,26.55
2017-08-28T11:13:47.535Z,26.91
2017-08-28T11:16:14.987Z,26.69
2017-08-28T11:18:42.471Z,26.75
2017-08-28T11:21:09.917Z,26.09
2017-08-28T11:23:37.414Z,26.77
2017-08-28T11:26:04.876Z,26.50
2017-08-28T11:28:32.347Z,26.48
2017-08-28T11:30:59.801Z,26.46
2017-08-28T11:33:27.278Z,26.54
2017-08-28T11:35:54.747Z,26.77
2017-08-28T11:38:22.210Z,26.82
2017-08-28T11:40:49.671Z,26.93
2017-08-28T11:43:17.160Z,27.27
2017-08-28T11:45:44.626Z,27.34
2017-08-28T11:48:12.156Z,27.24
2017-08-28T11:50:39.630Z,27.45
2017-08-28T11:53:07.091Z,27.14
2017-08-28T11:55:34.564Z,26.98
2017-08-28T11:58:02.121Z,27.32
2017-08-28T12:00:29.585Z,27.42
2017-08-28T12:02:57.033Z,27.43
2017-08-28T12:05:24.501Z,26.81
2017-08-28T12:07:51.963Z,27.40
2017-08-28T12:10:19.571Z,27.55
2017-08-28T12:12:47.178Z,27.27
2017-08-28T12:15:14.780Z,27.44
2017-08-28T12:17:42.235Z,27.46
2017-08-28T12:20:09.685Z,27.43
2017-08-28T12:22:37.158Z,27.00
2017-08-28T12:25:04.598Z,27.10
2017-08-28T12:27:32.062Z,26.89
2017-08-28T12:29:59.525Z,26.79
2017-08-28T12:32:27.006Z,26.76
2017-08-28T12:34:54.449Z,26.80
2017-08-28T12:37:21.919Z,26.72
2017-08-28T12:39:49.358Z,27.01
2017-08-28T12:42:16.818Z,27.19
2017-08-28T12:44:44.262Z,27.16
2017-08-28T12:47:11.797Z,27.12
2017-08-28T12:49:39.246Z,26.91
2017-08-28T12:52:06.707Z,27.09
2017-08-28T12:54:34.159Z,27.24
2017-08-28T12:57:01.651Z,27.33
2017-08-28T12:59:29.094Z,27.36
2017-08-28T13:01:56.550Z,27.63
2017-08-28T13:04:24.018Z,27.96
2017-08-28T13:06:51.462Z,28.14
2017-08-28T13:09:18.932Z,27.65
2017-08-28T13:11:46.379Z,27.62
2017-08-28T13:14:13.885Z,28.06
2017-08-28T13:16:41.344Z,28.12
2017-08-28T13:19:08.810Z,28.10
2017-08-28T13:21:36.254Z,28.06
2017-08-28T13:24:03.714Z,28.23
2017-08-28T13:26:31.162Z,27.85
2017-08-28T13:28:58.622Z,27.82
2017-08-28T13:31:26.070Z,27.61
2017-08-28T13:33:53.542Z,27.63
2017-08-28T13:36:20.982Z,27.77
2017-08-28T13:38:48.442Z,27.91
2017-08-28T13:41:15.882Z,27.65
2017-08-28T13:43:43.342Z,27.45
2017-08-28T13:46:10.791Z,27.58
2017-08-28T13:48:38.262Z,27.43
2017-08-28T13:51:05.730Z,27.41
2017-08-28T13:53:33.174Z,27.57
2017-08-28T13:56:00.644Z,28.00
2017-08-28T13:58:28.086Z,27.81
2017-08-28T14:00:55.555Z,27.91
2017-08-28T14:03:23.003Z,27.65
2017-08-28T14:05:50.479Z,27.67
2017-08-28T14:08:17.928Z,27.85
2017-08-28T14:10:45.395Z,27.63
2017-08-28T14:13:12.869Z,27.85
2017-08-28T14:15:40.346Z,28.00
2017-08-28T14:18:07.810Z,28.08
2017-08-28T14:20:35.273Z,27.74
2017-08-28T14:23:02.732Z,27.96
2017-08-28T14:25:30.202Z,28.13
2017-08-28T14:27:57.642Z,27.78
2017-08-28T14:30:25.110Z,28.10
2017-08-28T14:32:52.562Z,28.31
2017-08-28T14:35:20.058Z,28.36
2017-08-28T14:37:47.527Z,28.50
2017-08-28T14:40:14.975Z,28.21
2017-08-28T14:42:42.451Z,28.27
2017-08-28T14:45:09.893Z,28.38
2017-08-28T14:47:37.358Z,28.46
2017-08-28T14:50:04.802Z,28.19
2017-08-28T14:52:32.270Z,28.20
2017-08-28T14:54:59.723Z,28.11
2017-08-28T14:57:27.186Z,27.98
2017-08-28T14:59:54.628Z,28.02
2017-08-28T15:02:22.103Z,28.18
2017-08-28T15:04:49.541Z,28.05
2017-08-28T15:07:16.982Z,28.11
2017-08-28T15:09:44.451Z,28.15
2017-08-28T15:12:11.910Z,28.07
2017-08-28T15:14:39.383Z,28.07
2017-08-28T15:17:06.839Z,27.94
2017-08-28T15:19:34.301Z,28.31
2017-08-28T15:22:01.745Z,28.52
2017-08-28T15:24:29.211Z,28.25
2017-08-28T15:26:56.650Z,28.43
2017-08-28T15:29:24.118Z,28.68
2017-08-28T15:31:51.643Z,28.35
2017-08-28T15:34:19.108Z,28.40
2017-08-28T15:36:46.559Z,28.48
2017-08-28T15:39:14.026Z,28.59
2017-08-28T15:41:41.462Z,28.02
2017-08-28T15:44:08.938Z,27.96
2017-08-28T15:46:36.385Z,27.92
2017-08-28T15:49:03.850Z,27.85
2017-08-28T15:51:31.298Z,28.04
2017-08-28T15:53:58.826Z,28.08
2017-08-28T15:56:26.272Z,27.93
2017-08-28T15:58:53.724Z,27.83
2017-08-28T16:01:21.204Z,27.55
2017-08-28T16:03:48.646Z,27.61
2017-08-28T16:06:16.120Z,27.64
2017-08-28T16:08:43.563Z,27.68
2017-08-28T16:11:11.025Z,27.67
2017-08-28T16:13:38.465Z,27.82
2017-08-28T16:16:05.944Z,27.85
2017-08-28T16:18:33.398Z,27.80
2017-08-28T16:21:00.867Z,27.78
2017-08-28T16:23:28.311Z,27.70
2017-08-28T16:25:55.779Z,27.60
2017-08-28T16:28:23.223Z,27.55
2017-08-28T16:30:50.754Z,27.60
2017-08-28T16:33:18.223Z,27.58
2017-08-28T16:35:45.694Z,27.59
2017-08-28T16:38:13.134Z,27.63
2017-08-28T16:40:40.598Z,27.42
2017-08-28T16:43:08.046Z,27.37
2017-08-28T16:45:35.858Z,27.52
2017-08-28T16:48:03.303Z,27.44
2017-08-28T16:50:30.781Z,27.53
2017-08-28T16:52:58.252Z,27.56
2017-08-28T16:55:25.727Z,27.50
2017-08-28T16:57:53.196Z,27.62
2017-08-28T17:00:20.686Z,27.62
2017-08-28T17:02:48.134Z,27.42
2017-08-28T17:05:15.586Z,27.72
2017-08-28T17:07:43.059Z,27.55
2017-08-28T17:10:10.538Z,27.41
2017-08-28T17:12:38.003Z,27.34
2017-08-28T17:15:05.487Z,27.14
2017-08-28T17:17:32.974Z,27.02
2017-08-28T17:20:00.422Z,26.97
2017-08-28T17:22:27.886Z,27.13
2017-08-28T17:24:55.339Z,27.09
2017-08-28T17:27:22.798Z,26.94
2017-08-28T17:29:50.260Z,26.58
2017-08-28T17:32:17.734Z,26.57
2017-08-28T17:34:45.191Z,26.58
2017-08-28T17:37:12.670Z,26.60
2017-08-28T17:39:40.114Z,26.41
2017-08-28T17:42:07.587Z,26.12
2017-08-28T17:44:35.034Z,26.10
2017-08-28T17:47:02.530Z,25.93
2017-08-28T17:49:29.997Z,25.73
2017-08-28T17:51:57.470Z,25.18
2017-08-28T17:54:24.914Z,24.99
2017-08-28T17:56:52.460Z,25.10
2017-08-28T17:59:19.906Z,24.99
2017-08-28T18:01:47.373Z,24.89
2017-08-28T18:04:14.818Z,24.77
2017-08-28T18:06:42.377Z,24.71
2017-08-28T18:09:09.839Z,24.45
2017-08-28T18:11:37.301Z,24.36
2017-08-28T18:14:04.755Z,24.24
2017-08-28T18:16:32.235Z,24.18
2017-08-28T18:18:59.707Z,23.73
2017-08-28T18:21:27.347Z,23.63
2017-08-28T18:23:54.806Z,23.63
2017-08-28T18:26:22.277Z,23.71
2017-08-28T18:28:49.726Z,23.47
2017-08-28T18:31:17.195Z,23.24
2017-08-28T18:33:45.371Z,23.11
2017-08-28T18:36:12.871Z,23.34
2017-08-28T18:38:40.368Z,23.44
2017-08-28T18:41:07.819Z,23.43
2017-08-28T18:43:35.346Z,23.32
2017-08-28T18:46:02.811Z,23.22
2017-08-28T18:48:30.285Z,23.01
2017-08-28T18:50:57.730Z,23.08
2017-08-28T18:53:25.194Z,23.11
2017-08-28T18:55:52.643Z,22.75
2017-08-28T18:58:20.230Z,22.48
2017-08-28T19:00:47.690Z,22.47
2017-08-28T19:03:15.195Z,22.74
2017-08-28T19:05:42.766Z,22.76
2017-08-28T19:08:10.261Z,22.77
2017-08-28T19:10:37.793Z,22.69
2017-08-28T19:13:06.786Z,22.35
2017-08-28T19:15:34.302Z,22.44
2017-08-28T19:18:01.784Z,22.54
2017-08-28T19:20:29.240Z,22.41
2017-08-28T19:22:56.755Z,22.57
2017-08-28T19:25:24.214Z,22.51
2017-08-28T19:27:51.675Z,22.58
2017-08-28T19:30:19.124Z,22.75
2017-08-28T19:32:46.591Z,22.67
2017-08-28T19:35:14.056Z,22.91
2017-08-28T19:37:41.534Z,22.13
2017-08-28T19:40:09.059Z,21.96
2017-08-28T19:42:36.538Z,21.93
2017-08-28T19:45:04.043Z,21.99
2017-08-28T19:47:31.515Z,22.03
2017-08-28T19:49:58.978Z,21.77
2017-08-28T19:52:26.468Z,21.61
2017-08-28T19:54:53.925Z,21.44
2017-08-28T19:57:21.376Z,21.59
2017-08-28T19:59:48.908Z,21.63
2017-08-28T20:05:14.371Z,21.63
2017-08-28T20:07:41.835Z,21.65
2017-08-28T20:10:09.351Z,21.57
2017-08-28T20:12:36.819Z,21.59
2017-08-28T20:15:04.323Z,21.69
2017-08-28T20:17:31.778Z,21.72
2017-08-28T20:19:59.367Z,21.83
2017-08-28T20:22:26.831Z,21.68
2017-08-28T20:24:54.297Z,21.56
2017-08-28T20:27:21.779Z,21.40
2017-08-28T20:29:49.249Z,21.42
2017-08-28T20:32:16.754Z,21.55
2017-08-28T20:34:44.228Z,21.39
2017-08-28T20:37:11.743Z,21.04
2017-08-28T20:39:39.424Z,21.07
2017-08-28T20:42:06.934Z,21.03
2017-08-28T20:44:34.410Z,20.99
2017-08-28T20:47:01.890Z,20.89
2017-08-28T20:49:29.350Z,20.65
2017-08-28T20:51:56.917Z,20.63
2017-08-28T20:54:24.399Z,20.50
2017-08-28T20:56:51.858Z,20.21
2017-08-28T20:59:19.339Z,20.45
2017-08-28T21:01:46.786Z,20.53
2017-08-28T21:04:14.263Z,20.60
2017-08-28T21:06:41.711Z,20.51
2017-08-28T21:09:09.423Z,20.48
2017-08-28T21:11:37.150Z,20.51
2017-08-28T21:14:04.633Z,20.34
2017-08-28T21:16:32.090Z,20.41
2017-08-28T21:18:59.559Z,20.54
2017-08-28T21:21:27.014Z,20.55
2017-08-28T21:23:54.502Z,20.33
2017-08-28T21:26:21.951Z,20.31
2017-08-28T21:28:49.428Z,20.38
2017-08-28T21:31:16.936Z,20.26
2017-08-28T21:33:44.415Z,20.14
2017-08-28T21:36:11.885Z,19.94
2017-08-28T21:38:39.367Z,19.91
2017-08-28T21:41:06.817Z,20.00
2017-08-28T21:43:34.274Z,19.88
2017-08-28T21:46:01.758Z,19.58
2017-08-28T21:48:29.216Z,19.65
2017-08-28T21:50:56.694Z,19.83
2017-08-28T21:53:24.152Z,19.49
2017-08-28T21:55:51.629Z,19.65
2017-08-28T21:58:19.073Z,19.75
2017-08-28T22:00:46.543Z,19.76
2017-08-28T22:03:14.014Z,19.64
2017-08-28T22:05:41.495Z,19.62
2017-08-28T22:08:08.946Z,19.70
2017-08-28T22:10:36.426Z,19.70
2017-08-28T22:13:03.870Z,19.62
2017-08-28T22:15:31.351Z,19.51
2017-08-28T22:17:58.816Z,19.21
2017-08-28T22:20:26.289Z,19.34
2017-08-28T22:22:53.738Z,19.06
2017-08-28T22:25:21.215Z,19.02
2017-08-28T22:27:48.666Z,19.03
2017-08-28T22:30:16.146Z,19.03
2017-08-28T22:32:43.604Z,19.16
2017-08-28T22:35:11.087Z,19.26
2017-08-28T22:37:38.534Z,19.28
2017-08-28T22:40:06.010Z,19.37
2017-08-28T22:42:33.466Z,19.10
2017-08-28T22:45:00.947Z,19.24
2017-08-28T22:47:28.402Z,19.13
2017-08-28T22:49:55.883Z,19.11
2017-08-28T22:52:23.358Z,18.83
2017-08-28T22:54:50.810Z,18.82
2017-08-28T22:57:18.316Z,18.88
2017-08-28T22:59:45.762Z,18.90
2017-08-28T23:02:13.234Z,18.81
2017-08-28T23:04:40.683Z,18.66
2017-08-28T23:07:08.163Z,18.63
2017-08-28T23:09:35.616Z,18.69
2017-08-28T23:12:03.085Z,18.51
2017-08-28T23:14:30.529Z,18.61
2017-08-28T23:16:58.155Z,18.60
2017-08-28T23:19:25.615Z,18.75
2017-08-28T23:21:53.089Z,18.78
2017-08-28T23:24:20.544Z,18.58
2017-08-28T23:26:48.010Z,18.46
2017-08-28T23:29:15.457Z,18.49
2017-08-28T23:31:42.928Z,18.54
2017-08-28T23:34:10.390Z,18.42
2017-08-28T23:36:37.854Z,18.49
2017-08-28T23:39:05.306Z,18.39
2017-08-28T23:41:32.779Z,18.23
2017-08-28T23:44:00.239Z,18.04
2017-08-28T23:46:27.707Z,18.00
2017-08-28T23:48:55.156Z,17.86
2017-08-28T23:51:22.641Z,18.12
2017-08-28T23:53:50.139Z,18.12
2017-08-28T23:56:17.611Z,18.15
2017-08-28T23:58:45.068Z,18.21
